Time;durP1;ratioP1;P1;durP2;ratioP2;P2;SDS_P1;SDS_P2;PMS_P1;PMS_P2;Temp;Humidity;BMP_temperature;BMP_pressure;BME280_temperature;BME280_humidity;BME280_pressure;Samples;Min_cycle;Max_cycle;Signal;HPM_P1;HPM_P2
2023/03/19 00:00:41;;;;;;;14.57;13.07;;;10.70;99.90;;;;;;4824853;29;20744;-60
2023/03/19 00:03:09;;;;;;;14.30;12.80;;;10.60;99.90;;;;;;4827235;29;20242;-59
2023/03/19 00:05:37;;;;;;;15.07;12.10;;;10.70;99.90;;;;;;4824461;29;20270;-60
2023/03/19 00:08:05;;;;;;;15.03;13.43;;;10.80;99.90;;;;;;4827151;29;20699;-59
2023/03/19 00:10:37;;;;;;;14.50;13.00;;;10.70;99.90;;;;;;4822155;29;20320;-59
2023/03/19 00:13:08;;;;;;;14.13;12.73;;;10.50;99.90;;;;;;4808983;29;20240;-60
2023/03/19 00:15:37;;;;;;;15.23;13.13;;;10.50;99.90;;;;;;4814978;29;20246;-60
2023/03/19 00:18:06;;;;;;;14.67;13.13;;;10.30;99.90;;;;;;4824642;29;20755;-60
2023/03/19 00:20:35;;;;;;;16.07;14.03;;;10.20;99.90;;;;;;4830389;29;20254;-60
2023/03/19 00:23:03;;;;;;;15.60;13.83;;;10.30;99.90;;;;;;4808883;29;20719;-60
2023/03/19 00:25:32;;;;;;;15.30;13.70;;;10.10;99.90;;;;;;4819294;29;20351;-60
2023/03/19 00:28:00;;;;;;;15.67;14.07;;;10.10;99.90;;;;;;4820800;29;20234;-60
2023/03/19 00:30:30;;;;;;;15.57;13.97;;;10.00;99.90;;;;;;4815500;29;20224;-60
2023/03/19 00:32:58;;;;;;;15.20;13.70;;;10.00;99.90;;;;;;4818320;29;20243;-60
2023/03/19 00:35:27;;;;;;;14.87;12.80;;;10.00;99.90;;;;;;4819873;29;20287;-60
2023/03/19 00:37:55;;;;;;;15.87;13.57;;;9.90;99.90;;;;;;4813896;29;20314;-60
2023/03/19 00:40:23;;;;;;;15.40;13.80;;;9.90;99.90;;;;;;4815782;29;20239;-60
2023/03/19 00:42:51;;;;;;;14.93;12.87;;;9.80;99.90;;;;;;4821783;29;20760;-60
2023/03/19 00:45:19;;;;;;;15.57;13.30;;;9.80;99.90;;;;;;4819368;29;20610;-60
2023/03/19 00:47:49;;;;;;;20.60;16.13;;;9.80;99.90;;;;;;4818219;29;20234;-60
2023/03/19 00:50:18;;;;;;;19.40;16.23;;;9.70;99.90;;;;;;4838694;29;20244;-60
2023/03/19 00:52:46;;;;;;;16.30;13.80;;;9.90;99.90;;;;;;4844297;29;20238;-60
2023/03/19 00:55:14;;;;;;;15.33;13.73;;;9.90;99.90;;;;;;4836557;29;20258;-59
2023/03/19 00:57:42;;;;;;;16.93;15.13;;;9.90;99.90;;;;;;4823326;29;20227;-60
2023/03/19 01:00:12;;;;;;;20.50;17.37;;;9.80;99.90;;;;;;4825537;29;20703;-60
2023/03/19 01:02:40;;;;;;;23.17;18.93;;;9.70;99.90;;;;;;4825626;29;20228;-60
2023/03/19 01:05:10;;;;;;;29.37;24.57;;;9.60;99.90;;;;;;4825971;29;20606;-60
2023/03/19 01:07:39;;;;;;;23.17;19.43;;;9.60;99.90;;;;;;4825669;29;20247;-60
2023/03/19 01:10:10;;;;;;;27.07;23.07;;;9.60;99.90;;;;;;4824641;29;20330;-60
2023/03/19 01:12:38;;;;;;;27.20;23.00;;;9.60;99.90;;;;;;4825611;29;20594;-60
2023/03/19 01:15:08;;;;;;;21.03;18.13;;;9.60;99.90;;;;;;4825687;29;20306;-60
2023/03/19 01:17:36;;;;;;;19.50;17.43;;;9.70;99.90;;;;;;4824079;29;20275;-59
2023/03/19 01:20:07;;;;;;;24.43;20.73;;;9.60;99.90;;;;;;4836511;29;20272;-60
2023/03/19 01:22:37;;;;;;;21.73;19.53;;;9.50;99.90;;;;;;4834923;29;20234;-60
2023/03/19 01:25:06;;;;;;;19.00;17.10;;;9.40;99.90;;;;;;4824313;29;20227;-60
2023/03/19 01:27:36;;;;;;;19.50;17.40;;;9.30;99.90;;;;;;4823973;29;20230;-60
2023/03/19 01:30:06;;;;;;;17.63;16.03;;;9.30;99.90;;;;;;4824324;29;20580;-60
2023/03/19 01:32:57;;;;;;;17.43;15.63;;;9.30;99.90;;;;;;4816553;29;20249;-60
2023/03/19 01:35:46;;;;;;;14.43;12.80;;;9.30;99.90;;;;;;4825321;29;20241;-60
2023/03/19 01:38:17;;;;;;;13.00;11.70;;;9.20;99.90;;;;;;4824158;29;20722;-60
2023/03/19 01:40:46;;;;;;;11.83;10.63;;;9.20;99.90;;;;;;4823906;29;20283;-60
2023/03/19 01:43:18;;;;;;;10.47;9.30;;;9.20;99.90;;;;;;4824114;29;20315;-60
2023/03/19 01:45:55;;;;;;;12.17;10.93;;;9.10;99.90;;;;;;4823693;29;20238;-60
2023/03/19 01:49:05;;;;;;;10.07;9.07;;;9.20;99.90;;;;;;4835552;29;20232;-60
2023/03/19 01:51:39;;;;;;;10.83;9.80;;;9.10;99.90;;;;;;4859362;29;20314;-60
2023/03/19 01:54:28;;;;;;;9.53;8.60;;;9.20;99.90;;;;;;4847571;29;20303;-60
2023/03/19 01:57:14;;;;;;;9.70;8.70;;;9.10;99.90;;;;;;4821844;29;20318;-60
2023/03/19 02:00:04;;;;;;;10.00;8.43;;;9.20;99.90;;;;;;4825293;29;20594;-60
2023/03/19 02:02:47;;;;;;;8.70;7.53;;;9.10;99.90;;;;;;4824414;29;20249;-60
2023/03/19 02:05:41;;;;;;;8.83;8.00;;;9.20;99.90;;;;;;4827458;29;20242;-60
2023/03/19 02:08:14;;;;;;;8.90;8.00;;;9.10;99.90;;;;;;4805569;29;20265;-60
2023/03/19 02:10:46;;;;;;;8.03;7.23;;;9.10;99.90;;;;;;4805330;29;20233;-60
2023/03/19 02:13:14;;;;;;;7.67;6.97;;;9.10;99.90;;;;;;4805496;29;20656;-60
2023/03/19 02:15:43;;;;;;;7.37;6.67;;;9.00;99.90;;;;;;4805284;29;20238;-60
2023/03/19 02:18:11;;;;;;;6.87;6.20;;;9.00;99.90;;;;;;4809965;29;20767;-60
2023/03/19 02:20:49;;;;;;;7.40;6.63;;;9.00;99.90;;;;;;4838372;29;20281;-60
2023/03/19 02:23:26;;;;;;;7.17;6.23;;;9.00;99.90;;;;;;4841618;29;20702;-60
2023/03/19 02:26:05;;;;;;;7.20;6.20;;;9.00;99.90;;;;;;4827278;29;20240;-60
2023/03/19 02:28:36;;;;;;;6.23;5.63;;;9.00;99.90;;;;;;4821566;29;20276;-60
2023/03/19 02:31:05;;;;;;;6.77;6.00;;;9.10;99.90;;;;;;4825416;29;20330;-60
2023/03/19 02:33:33;;;;;;;6.57;5.93;;;9.10;99.90;;;;;;4831719;29;20232;-60
2023/03/19 02:36:03;;;;;;;6.00;5.37;;;9.00;99.90;;;;;;4833404;29;20235;-60
2023/03/19 02:38:34;;;;;;;5.97;5.27;;;9.10;99.90;;;;;;4806066;29;20318;-60
2023/03/19 02:41:06;;;;;;;8.83;5.20;;;9.00;99.90;;;;;;4804940;29;20337;-60
2023/03/19 02:43:36;;;;;;;5.17;4.67;;;9.00;99.90;;;;;;4804815;29;20660;-60
2023/03/19 02:46:07;;;;;;;5.50;5.00;;;8.90;99.90;;;;;;4808272;29;20305;-60
2023/03/19 02:48:36;;;;;;;4.87;4.00;;;9.00;99.90;;;;;;4812149;29;20236;-59
2023/03/19 02:51:05;;;;;;;4.37;3.97;;;9.20;99.90;;;;;;4827964;29;20299;-60
2023/03/19 02:53:33;;;;;;;4.50;4.10;;;9.10;99.90;;;;;;4823810;29;20254;-60
2023/03/19 02:56:03;;;;;;;4.97;4.20;;;9.10;99.90;;;;;;4819035;29;20250;-61
2023/03/19 02:58:31;;;;;;;4.00;3.60;;;9.10;99.90;;;;;;4824257;29;20232;-60
2023/03/19 03:00:59;;;;;;;4.50;4.10;;;9.30;99.90;;;;;;4823841;29;20787;-61
2023/03/19 03:03:27;;;;;;;4.70;4.20;;;9.20;99.90;;;;;;4837717;29;20238;-60
2023/03/19 03:05:56;;;;;;;4.23;3.83;;;9.20;99.90;;;;;;4823176;29;20238;-60
2023/03/19 03:08:25;;;;;;;3.70;3.40;;;9.20;99.90;;;;;;4824236;29;20226;-60
2023/03/19 03:10:53;;;;;;;4.00;3.57;;;9.20;99.90;;;;;;4824294;29;20226;-60
2023/03/19 03:13:22;;;;;;;3.67;3.23;;;9.20;99.90;;;;;;4838035;29;20234;-60
2023/03/19 03:15:52;;;;;;;4.20;3.80;;;9.30;99.90;;;;;;4824214;29;20233;-60
2023/03/19 03:18:20;;;;;;;4.00;3.60;;;9.30;99.90;;;;;;4823971;29;20723;-60
2023/03/19 03:20:48;;;;;;;4.73;3.40;;;9.40;99.90;;;;;;4854220;29;20233;-60
2023/03/19 03:23:16;;;;;;;4.67;3.47;;;9.30;99.90;;;;;;4831259;29;20303;-60
2023/03/19 03:25:45;;;;;;;4.33;3.60;;;9.30;99.90;;;;;;4823807;29;20231;-60
2023/03/19 03:28:13;;;;;;;4.77;3.30;;;9.30;99.90;;;;;;4823995;29;20230;-60
2023/03/19 03:30:42;;;;;;;4.07;3.67;;;9.40;99.90;;;;;;4823348;29;20616;-60
2023/03/19 03:33:11;;;;;;;5.10;4.60;;;9.40;99.90;;;;;;4822026;29;20749;-60
2023/03/19 03:35:39;;;;;;;3.43;3.13;;;9.40;99.90;;;;;;4815307;29;20756;-60
2023/03/19 03:38:07;;;;;;;3.87;3.57;;;9.30;99.90;;;;;;4841510;29;20634;-60
2023/03/19 03:40:36;;;;;;;3.77;3.47;;;9.30;99.90;;;;;;4845297;29;20693;-60
2023/03/19 03:43:04;;;;;;;4.00;3.70;;;9.40;99.90;;;;;;4841314;29;20726;-60
2023/03/19 03:45:35;;;;;;;4.07;3.67;;;9.40;99.90;;;;;;4816135;29;20326;-60
2023/03/19 03:48:05;;;;;;;4.57;3.53;;;9.30;99.90;;;;;;4826045;29;20317;-60
2023/03/19 03:50:33;;;;;;;4.40;4.00;;;9.30;99.90;;;;;;4828032;29;20285;-60
2023/03/19 03:53:07;;;;;;;4.30;3.80;;;9.40;99.90;;;;;;4826017;29;20238;-60
2023/03/19 03:55:36;;;;;;;4.37;3.97;;;9.30;99.90;;;;;;4826312;29;20763;-60
2023/03/19 03:58:04;;;;;;;3.77;3.37;;;9.30;99.90;;;;;;4833738;29;20268;-60
2023/03/19 04:00:32;;;;;;;5.00;3.80;;;9.30;99.90;;;;;;4825215;29;20242;-60
2023/03/19 04:03:01;;;;;;;4.13;3.73;;;9.40;99.90;;;;;;4840940;29;20310;-60
2023/03/19 04:05:31;;;;;;;4.40;3.43;;;9.30;99.90;;;;;;4840904;29;20645;-60
2023/03/19 04:07:59;;;;;;;4.73;3.70;;;9.30;99.90;;;;;;4840919;29;20609;-60
2023/03/19 04:10:27;;;;;;;4.13;3.73;;;9.30;99.90;;;;;;4825376;29;20254;-60
2023/03/19 04:12:55;;;;;;;5.43;3.60;;;9.30;99.90;;;;;;4826307;29;20720;-60
2023/03/19 04:15:24;;;;;;;3.60;3.30;;;9.30;99.90;;;;;;4825492;29;20244;-59
2023/03/19 04:17:55;;;;;;;4.10;3.53;;;9.30;99.90;;;;;;4825452;29;20234;-60
2023/03/19 04:20:24;;;;;;;4.73;3.90;;;9.30;99.90;;;;;;4854023;29;20232;-60
2023/03/19 04:22:53;;;;;;;3.87;3.47;;;9.30;99.90;;;;;;4843672;29;20270;-60
2023/03/19 04:25:22;;;;;;;4.07;3.67;;;9.30;99.90;;;;;;4836563;29;20233;-60
2023/03/19 04:27:50;;;;;;;3.90;3.40;;;9.20;99.90;;;;;;4825072;29;20237;-60
2023/03/19 04:30:18;;;;;;;4.90;4.40;;;9.30;99.90;;;;;;4840297;29;20291;-60
2023/03/19 04:32:47;;;;;;;6.30;4.23;;;9.30;99.90;;;;;;4826110;29;20230;-60
2023/03/19 04:35:17;;;;;;;5.07;4.57;;;9.20;99.90;;;;;;4840489;29;20721;-60
2023/03/19 04:37:47;;;;;;;5.53;4.50;;;9.20;99.90;;;;;;4824878;29;20710;-60
2023/03/19 04:40:18;;;;;;;4.60;4.20;;;9.30;99.90;;;;;;4824974;29;20292;-60
2023/03/19 04:42:47;;;;;;;4.37;3.97;;;9.30;99.90;;;;;;4827188;29;20245;-60
2023/03/19 04:45:28;;;;;;;4.60;3.70;;;9.40;99.90;;;;;;4840173;29;20240;-60
2023/03/19 04:47:57;;;;;;;4.77;4.00;;;9.40;99.90;;;;;;4840340;29;20266;-60
2023/03/19 04:50:25;;;;;;;5.30;4.17;;;9.40;99.90;;;;;;4839040;29;20246;-60
2023/03/19 04:52:54;;;;;;;4.40;4.00;;;9.40;99.90;;;;;;4843207;29;20246;-60
2023/03/19 04:55:25;;;;;;;5.03;4.53;;;9.50;99.90;;;;;;4832381;29;20249;-60
2023/03/19 04:58:17;;;;;;;4.90;4.50;;;9.40;99.90;;;;;;4827814;29;20289;-60
2023/03/19 05:00:52;;;;;;;5.37;4.10;;;9.40;99.90;;;;;;4824386;29;20610;-60
2023/03/19 05:03:26;;;;;;;4.60;4.20;;;9.40;99.90;;;;;;4839681;29;20337;-60
2023/03/19 05:05:54;;;;;;;4.47;4.07;;;9.40;99.90;;;;;;4826986;29;20226;-60
2023/03/19 05:08:22;;;;;;;4.80;4.20;;;9.30;99.90;;;;;;4839909;29;20239;-60
2023/03/19 05:10:52;;;;;;;4.80;4.10;;;9.30;99.90;;;;;;4824614;29;20733;-60
2023/03/19 05:13:20;;;;;;;4.30;3.90;;;9.30;99.90;;;;;;4839860;29;20801;-59
2023/03/19 05:15:53;;;;;;;4.67;4.23;;;9.30;99.90;;;;;;4806457;29;20242;-60
2023/03/19 05:18:22;;;;;;;5.20;4.70;;;9.20;99.90;;;;;;4811047;29;20297;-60
2023/03/19 05:20:50;;;;;;;4.73;4.30;;;9.20;99.90;;;;;;4841075;29;20291;-60
2023/03/19 05:23:22;;;;;;;5.17;4.50;;;9.20;99.90;;;;;;4842630;29;20256;-60
2023/03/19 05:25:59;;;;;;;4.57;4.17;;;9.20;99.90;;;;;;4829879;29;21768;-60
2023/03/19 05:28:46;;;;;;;4.57;4.17;;;9.20;99.90;;;;;;4825612;29;20366;-60
2023/03/19 05:31:17;;;;;;;4.23;3.80;;;9.20;99.90;;;;;;4840058;29;20241;-60
2023/03/19 05:33:50;;;;;;;4.27;3.97;;;9.10;99.90;;;;;;4825425;29;20238;-60
2023/03/19 05:36:18;;;;;;;5.27;4.57;;;9.20;99.90;;;;;;4825433;29;20222;-60
2023/03/19 05:39:04;;;;;;;4.80;4.30;;;9.20;99.90;;;;;;4824270;29;20771;-60
2023/03/19 05:41:37;;;;;;;5.30;4.67;;;9.20;99.90;;;;;;4823891;29;20266;-60
2023/03/19 05:44:07;;;;;;;5.07;4.67;;;9.20;99.90;;;;;;4823845;29;20253;-60
2023/03/19 05:46:58;;;;;;;5.33;4.83;;;9.20;99.90;;;;;;4843270;29;20245;-60
2023/03/19 05:49:30;;;;;;;6.20;5.03;;;9.50;99.90;;;;;;4835522;29;20713;-60
2023/03/19 05:51:58;;;;;;;5.03;4.53;;;9.30;99.90;;;;;;4829123;29;20246;-60
2023/03/19 05:54:27;;;;;;;6.13;4.80;;;9.20;99.90;;;;;;4811825;29;20232;-58
2023/03/19 05:57:04;;;;;;;5.53;5.03;;;9.20;99.90;;;;;;4829685;29;20230;-59
2023/03/19 06:00:11;;;;;;;5.60;5.10;;;9.20;99.90;;;;;;4809602;29;20720;-60
2023/03/19 06:02:39;;;;;;;9.67;6.17;;;9.30;99.90;;;;;;4805632;29;20239;-60
2023/03/19 06:05:36;;;;;;;5.80;5.20;;;9.30;99.90;;;;;;4805409;29;20258;-60
2023/03/19 06:08:13;;;;;;;6.33;5.73;;;9.20;99.90;;;;;;4810921;29;20245;-60
2023/03/19 06:10:57;;;;;;;5.87;5.30;;;9.20;99.90;;;;;;4808960;29;20236;-60
2023/03/19 06:13:27;;;;;;;6.10;5.50;;;9.20;99.90;;;;;;4805348;29;20253;-60
2023/03/19 06:16:00;;;;;;;6.07;5.47;;;9.20;99.90;;;;;;4816581;29;20784;-60
2023/03/19 06:18:34;;;;;;;8.10;6.07;;;9.20;99.90;;;;;;4811116;29;20636;-60
2023/03/19 06:21:08;;;;;;;6.13;5.60;;;9.20;99.90;;;;;;4850032;29;20727;-60
2023/03/19 06:23:36;;;;;;;6.10;5.60;;;9.30;99.90;;;;;;4842700;29;20326;-60
2023/03/19 06:26:05;;;;;;;6.77;6.17;;;9.20;99.90;;;;;;4827923;29;20226;-60
2023/03/19 06:28:45;;;;;;;7.17;6.53;;;9.30;99.90;;;;;;4823282;29;20288;-60
2023/03/19 06:31:14;;;;;;;7.93;7.13;;;9.40;99.90;;;;;;4838118;29;20246;-60
2023/03/19 06:33:58;;;;;;;7.07;6.17;;;9.30;99.90;;;;;;4843581;29;20784;-60
2023/03/19 06:36:34;;;;;;;7.43;6.73;;;9.40;99.90;;;;;;4816260;29;20274;-60
2023/03/19 06:39:03;;;;;;;7.57;6.20;;;9.40;99.90;;;;;;4819914;29;20266;-60
2023/03/19 06:41:31;;;;;;;6.30;5.57;;;9.30;99.90;;;;;;4815567;29;20239;-60
2023/03/19 06:44:12;;;;;;;6.50;5.90;;;9.70;99.90;;;;;;4820116;29;20252;-59
2023/03/19 06:46:40;;;;;;;6.57;5.97;;;9.70;99.90;;;;;;4806024;29;20691;-59
2023/03/19 06:49:08;;;;;;;6.80;6.20;;;9.80;99.90;;;;;;4820140;29;20225;-60
2023/03/19 06:51:36;;;;;;;6.70;6.10;;;9.80;99.90;;;;;;4842434;29;20234;-60
2023/03/19 06:54:04;;;;;;;6.10;5.50;;;9.70;99.90;;;;;;4842643;29;20235;-60
2023/03/19 06:56:32;;;;;;;6.23;5.73;;;9.80;99.90;;;;;;4823840;29;20250;-60
2023/03/19 06:59:01;;;;;;;8.60;6.23;;;9.80;99.90;;;;;;4824246;29;20237;-60
2023/03/19 07:01:30;;;;;;;7.20;6.50;;;9.80;99.90;;;;;;4822730;29;20243;-60
2023/03/19 07:03:58;;;;;;;8.13;7.33;;;9.70;99.90;;;;;;4824418;29;20245;-60
2023/03/19 07:06:27;;;;;;;9.03;7.03;;;9.70;99.90;;;;;;4823951;29;20241;-60
2023/03/19 07:08:55;;;;;;;9.13;7.10;;;9.70;99.90;;;;;;4824157;29;20237;-60
2023/03/19 07:11:23;;;;;;;9.00;7.53;;;9.70;99.90;;;;;;4824329;29;20328;-60
2023/03/19 07:13:51;;;;;;;7.70;7.00;;;9.70;99.90;;;;;;4824171;29;20246;-60
2023/03/19 07:16:19;;;;;;;8.43;7.60;;;9.80;99.90;;;;;;4824548;29;20227;-60
2023/03/19 07:18:48;;;;;;;7.93;7.13;;;9.90;99.90;;;;;;4822800;29;20360;-60
2023/03/19 07:21:16;;;;;;;8.67;7.60;;;9.90;99.90;;;;;;4828988;29;20249;-59
2023/03/19 07:23:45;;;;;;;9.00;8.10;;;10.00;99.90;;;;;;4836742;29;20241;-60
2023/03/19 07:26:13;;;;;;;8.47;7.67;;;10.10;99.90;;;;;;4820427;29;20234;-60
2023/03/19 07:28:41;;;;;;;11.40;9.13;;;10.20;99.90;;;;;;4823320;29;20241;-60
2023/03/19 07:31:10;;;;;;;8.47;7.57;;;10.40;99.90;;;;;;4823622;29;20719;-60
2023/03/19 07:33:38;;;;;;;11.03;8.30;;;10.60;99.90;;;;;;4840330;29;20230;-60
2023/03/19 07:36:08;;;;;;;9.57;7.80;;;10.80;99.90;;;;;;4842012;29;20744;-60
2023/03/19 07:38:36;;;;;;;7.83;7.03;;;11.10;99.90;;;;;;4841705;29;20241;-60
2023/03/19 07:41:05;;;;;;;8.30;7.40;;;11.60;99.90;;;;;;4825479;29;20231;-59
2023/03/19 07:43:33;;;;;;;7.83;6.80;;;11.70;99.90;;;;;;4822890;29;20223;-59
2023/03/19 07:46:01;;;;;;;6.83;6.23;;;11.70;99.90;;;;;;4823966;29;20600;-60
2023/03/19 07:48:30;;;;;;;7.80;7.00;;;11.70;99.90;;;;;;4823692;29;20270;-59
2023/03/19 07:50:58;;;;;;;7.50;6.60;;;11.60;99.90;;;;;;4841374;29;20246;-60
2023/03/19 07:53:28;;;;;;;8.77;6.87;;;11.50;99.90;;;;;;4841547;29;20239;-60
2023/03/19 07:55:56;;;;;;;7.67;6.93;;;11.50;99.90;;;;;;4829094;29;20245;-60
2023/03/19 07:58:25;;;;;;;10.70;8.30;;;11.50;99.90;;;;;;4823425;29;20242;-59
2023/03/19 08:00:53;;;;;;;11.30;8.47;;;11.60;99.90;;;;;;4823199;29;20246;-59
2023/03/19 08:03:21;;;;;;;7.97;7.17;;;12.00;99.90;;;;;;4823447;29;20257;-59
2023/03/19 08:05:50;;;;;;;7.53;6.83;;;12.40;99.90;;;;;;4823400;29;20327;-60
2023/03/19 08:08:18;;;;;;;8.17;7.27;;;12.70;99.90;;;;;;4823289;29;20228;-60
2023/03/19 08:10:49;;;;;;;8.40;7.53;;;12.90;99.90;;;;;;4823170;29;21119;-60
2023/03/19 08:13:17;;;;;;;7.63;6.83;;;13.10;99.90;;;;;;4823594;29;20285;-59
2023/03/19 08:15:49;;;;;;;8.00;7.20;;;13.30;99.90;;;;;;4823276;29;20250;-60
2023/03/19 08:18:17;;;;;;;8.50;6.87;;;13.30;99.90;;;;;;4823415;29;20236;-60
2023/03/19 08:20:46;;;;;;;7.90;6.87;;;13.40;99.90;;;;;;4832824;29;20241;-60
2023/03/19 08:23:14;;;;;;;7.10;5.60;;;13.70;99.90;;;;;;4818157;29;20244;-60
2023/03/19 08:25:42;;;;;;;6.83;6.23;;;13.70;99.90;;;;;;4824800;29;20236;-60
2023/03/19 08:28:12;;;;;;;6.83;6.20;;;13.80;99.90;;;;;;4826778;29;20591;-60
2023/03/19 08:30:40;;;;;;;7.00;6.30;;;14.20;99.90;;;;;;4828752;29;20598;-60
2023/03/19 08:33:08;;;;;;;6.60;6.00;;;14.40;99.90;;;;;;4845182;29;20695;-60
2023/03/19 08:35:36;;;;;;;7.63;5.70;;;14.70;99.90;;;;;;4832830;29;20232;-60
2023/03/19 08:38:05;;;;;;;8.13;5.90;;;15.00;99.90;;;;;;4827348;29;20699;-60
2023/03/19 08:40:33;;;;;;;7.57;6.40;;;15.50;99.90;;;;;;4819010;29;20228;-60
2023/03/19 08:43:02;;;;;;;6.70;5.73;;;15.60;99.90;;;;;;4826188;29;20228;-59
2023/03/19 08:45:32;;;;;;;7.60;5.93;;;15.60;99.90;;;;;;4819956;29;20244;-59
2023/03/19 08:48:00;;;;;;;6.17;5.53;;;15.40;99.90;;;;;;4817278;29;20670;-60
2023/03/19 08:50:28;;;;;;;6.87;6.17;;;15.30;99.90;;;;;;4840202;29;20772;-59
2023/03/19 08:52:56;;;;;;;7.07;6.10;;;15.10;99.90;;;;;;4844493;29;20327;-60
2023/03/19 08:55:24;;;;;;;7.07;5.73;;;15.10;99.90;;;;;;4835688;29;20244;-60
2023/03/19 08:57:52;;;;;;;8.10;6.27;;;15.20;99.90;;;;;;4825939;29;20238;-60
2023/03/19 09:00:22;;;;;;;7.60;6.53;;;14.90;99.90;;;;;;4825901;29;20705;-60
2023/03/19 09:02:51;;;;;;;7.13;6.33;;;14.90;99.90;;;;;;4824776;29;20232;-59
2023/03/19 09:05:21;;;;;;;7.40;6.70;;;14.80;99.90;;;;;;4825885;29;20712;-60
2023/03/19 09:07:50;;;;;;;7.03;6.33;;;14.70;99.90;;;;;;4826066;29;20239;-59
2023/03/19 09:10:18;;;;;;;9.60;6.63;;;14.60;99.90;;;;;;4825218;29;20235;-59
2023/03/19 09:12:47;;;;;;;6.97;6.10;;;14.50;99.90;;;;;;4823687;29;20696;-59
2023/03/19 09:15:15;;;;;;;6.80;6.13;;;14.30;99.90;;;;;;4825989;29;20841;-59
2023/03/19 09:17:44;;;;;;;6.80;5.83;;;14.30;99.90;;;;;;4824718;29;20243;-60
2023/03/19 09:20:13;;;;;;;7.40;6.60;;;14.30;99.90;;;;;;4821669;29;20236;-60
2023/03/19 09:22:41;;;;;;;7.43;6.03;;;14.20;99.90;;;;;;4815166;29;20258;-59
2023/03/19 09:25:10;;;;;;;7.37;6.57;;;14.20;99.90;;;;;;4818538;29;20331;-59
2023/03/19 09:27:38;;;;;;;7.23;6.53;;;14.30;99.90;;;;;;4824776;29;20593;-60
2023/03/19 09:30:08;;;;;;;7.67;6.33;;;14.40;99.90;;;;;;4829500;29;20251;-60
2023/03/19 09:32:36;;;;;;;7.37;6.63;;;14.50;99.90;;;;;;4843446;29;20772;-59
2023/03/19 09:35:06;;;;;;;6.73;6.00;;;14.50;99.90;;;;;;4820560;29;20258;-59
2023/03/19 09:37:35;;;;;;;9.03;6.53;;;14.50;99.90;;;;;;4825561;29;20236;-59
2023/03/19 09:40:04;;;;;;;9.07;6.90;;;14.60;99.90;;;;;;4822092;29;20243;-60
2023/03/19 09:42:48;;;;;;;7.07;6.30;;;14.70;99.90;;;;;;4819771;29;20241;-60
2023/03/19 09:45:19;;;;;;;8.90;6.43;;;14.90;99.90;;;;;;4820988;29;20741;-60
2023/03/19 09:47:52;;;;;;;6.83;6.13;;;14.90;99.90;;;;;;4821010;29;20771;-60
2023/03/19 09:50:22;;;;;;;7.57;6.17;;;14.90;99.90;;;;;;4821070;29;20225;-60
2023/03/19 09:52:58;;;;;;;10.37;6.70;;;14.80;99.90;;;;;;4818745;29;20248;-60
2023/03/19 09:55:35;;;;;;;7.50;6.77;;;14.60;99.90;;;;;;4819939;29;20733;-59
2023/03/19 09:58:14;;;;;;;8.67;7.10;;;14.50;99.90;;;;;;4821153;29;20271;-60
2023/03/19 10:00:44;;;;;;;8.90;7.20;;;14.40;99.90;;;;;;4820456;29;20671;-59
2023/03/19 10:03:27;;;;;;;9.57;7.33;;;14.40;99.90;;;;;;4820832;29;20727;-60
2023/03/19 10:06:07;;;;;;;8.00;7.20;;;14.60;99.90;;;;;;4821350;29;20725;-60
2023/03/19 10:08:54;;;;;;;10.77;6.97;;;14.80;99.90;;;;;;4821095;29;20589;-59
2023/03/19 10:11:35;;;;;;;7.33;6.50;;;15.10;99.90;;;;;;4818814;29;20597;-59
2023/03/19 10:14:17;;;;;;;9.00;7.23;;;15.50;99.90;;;;;;4820733;29;20242;-59
2023/03/19 10:16:48;;;;;;;7.00;6.30;;;15.90;99.90;;;;;;4820826;29;20240;-59
2023/03/19 10:19:21;;;;;;;7.50;6.70;;;16.10;99.90;;;;;;4819290;29;20745;-60
2023/03/19 10:21:55;;;;;;;7.93;6.90;;;16.20;99.90;;;;;;4820116;29;20263;-59
2023/03/19 10:24:32;;;;;;;8.63;6.80;;;16.40;99.90;;;;;;4821628;29;20596;-60
2023/03/19 10:27:05;;;;;;;6.77;5.97;;;16.60;99.90;;;;;;4820448;29;20602;-59
2023/03/19 10:29:34;;;;;;;8.37;6.40;;;17.00;99.90;;;;;;4820532;29;20785;-60
2023/03/19 10:32:17;;;;;;;6.40;5.73;;;17.50;99.90;;;;;;4818529;29;20252;-60
2023/03/19 10:34:49;;;;;;;6.87;5.93;;;18.00;99.90;;;;;;4820252;29;20309;-60
2023/03/19 10:37:20;;;;;;;7.40;5.30;;;17.80;99.90;;;;;;4820782;29;20240;-60
2023/03/19 10:39:52;;;;;;;6.93;5.10;;;17.50;99.90;;;;;;4820647;29;20233;-59
2023/03/19 10:42:35;;;;;;;6.17;5.40;;;16.90;99.90;;;;;;4819673;29;20237;-59
2023/03/19 10:45:10;;;;;;;7.17;5.60;;;16.70;99.90;;;;;;4819833;29;20290;-59
2023/03/19 10:47:39;;;;;;;5.43;4.80;;;16.20;99.90;;;;;;4819854;29;20224;-60
2023/03/19 10:50:14;;;;;;;5.77;5.17;;;16.10;99.90;;;;;;4819610;29;20736;-60
2023/03/19 10:52:43;;;;;;;4.30;3.90;;;15.90;99.90;;;;;;4821245;29;20233;-60
2023/03/19 10:55:16;;;;;;;6.10;4.20;;;15.80;99.90;;;;;;4819959;29;20280;-60
2023/03/19 10:57:49;;;;;;;6.30;3.90;;;15.80;99.90;;;;;;4819845;29;20755;-60
2023/03/19 11:00:23;;;;;;;5.47;4.47;;;15.80;99.90;;;;;;4819394;29;20232;-60
2023/03/19 11:02:53;;;;;;;6.20;4.70;;;15.80;99.90;;;;;;4820138;29;20274;-60
2023/03/19 11:05:30;;;;;;;4.27;3.53;;;15.80;99.90;;;;;;4820163;29;20226;-59
2023/03/19 11:08:01;;;;;;;4.63;3.90;;;15.70;99.90;;;;;;4819632;29;20563;-59
2023/03/19 11:10:34;;;;;;;4.30;3.70;;;15.60;99.90;;;;;;4819942;29;20658;-60
2023/03/19 11:13:06;;;;;;;4.83;3.77;;;15.70;99.90;;;;;;4820178;29;20264;-60
2023/03/19 11:15:37;;;;;;;3.77;3.37;;;15.80;99.90;;;;;;4818836;29;20261;-59
2023/03/19 11:18:17;;;;;;;6.07;4.53;;;15.90;99.90;;;;;;4819757;29;20229;-59
2023/03/19 11:20:53;;;;;;;4.47;3.90;;;16.10;99.90;;;;;;4819212;29;20238;-60
2023/03/19 11:23:22;;;;;;;4.37;3.97;;;16.10;99.90;;;;;;4819725;29;20327;-59
2023/03/19 11:25:54;;;;;;;5.47;3.80;;;16.30;99.90;;;;;;4819681;29;20741;-60
2023/03/19 11:28:25;;;;;;;4.90;3.77;;;16.30;99.90;;;;;;4819999;29;20747;-59
2023/03/19 11:31:02;;;;;;;4.90;3.87;;;16.30;99.90;;;;;;4818145;29;20791;-60
2023/03/19 11:33:46;;;;;;;5.73;4.53;;;16.20;99.90;;;;;;4818357;29;20298;-60
2023/03/19 11:36:21;;;;;;;4.20;3.80;;;16.30;99.90;;;;;;4818346;29;21641;-59
2023/03/19 11:39:03;;;;;;;4.20;3.60;;;16.20;99.90;;;;;;4818717;29;20228;-60
2023/03/19 11:41:47;;;;;;;4.67;4.20;;;16.20;99.90;;;;;;4818893;29;20315;-60
2023/03/19 11:44:20;;;;;;;6.03;4.50;;;16.20;99.90;;;;;;4818963;29;20279;-59
2023/03/19 11:46:54;;;;;;;6.33;4.10;;;16.00;99.90;;;;;;4818673;29;20695;-59
2023/03/19 11:49:43;;;;;;;6.13;4.23;;;16.00;99.90;;;;;;4819042;29;20234;-60
2023/03/19 11:52:18;;;;;;;5.57;4.53;;;15.90;99.90;;;;;;4818172;29;20778;-59
2023/03/19 11:55:01;;;;;;;5.77;4.53;;;16.00;99.90;;;;;;4817708;29;20269;-59
2023/03/19 11:57:45;;;;;;;6.13;4.43;;;16.00;99.90;;;;;;4818859;29;20636;-59
2023/03/19 12:00:27;;;;;;;5.97;4.40;;;16.00;99.90;;;;;;4818768;29;20249;-60
2023/03/19 12:03:13;;;;;;;6.47;4.67;;;16.00;99.90;;;;;;4822013;29;20232;-60
2023/03/19 12:05:50;;;;;;;6.67;4.50;;;15.90;99.90;;;;;;4822436;29;20611;-59
2023/03/19 12:08:38;;;;;;;5.90;4.63;;;15.80;99.90;;;;;;4822964;29;20717;-59
2023/03/19 12:11:17;;;;;;;7.37;5.23;;;15.70;99.90;;;;;;4822703;29;20248;-60
2023/03/19 12:14:02;;;;;;;7.20;5.07;;;15.50;99.90;;;;;;4821868;29;20817;-59
2023/03/19 12:16:49;;;;;;;5.10;4.60;;;15.50;99.90;;;;;;4822210;29;21705;-59
2023/03/19 12:19:44;;;;;;;6.57;4.60;;;15.60;99.90;;;;;;4822507;29;20232;-59
2023/03/19 12:22:23;;;;;;;4.80;4.30;;;15.80;99.90;;;;;;4821968;29;20721;-60
2023/03/19 12:25:03;;;;;;;5.40;4.83;;;15.90;99.90;;;;;;4822350;29;20249;-59
2023/03/19 12:27:35;;;;;;;7.87;5.70;;;16.00;99.90;;;;;;4822084;29;20249;-60
2023/03/19 12:30:17;;;;;;;8.93;4.77;;;16.00;99.90;;;;;;4821688;29;20340;-59
2023/03/19 12:33:09;;;;;;;5.37;4.80;;;16.00;99.90;;;;;;4821866;29;20661;-59
2023/03/19 12:35:39;;;;;;;7.47;5.87;;;15.90;99.90;;;;;;4822009;29;20728;-60
2023/03/19 12:38:13;;;;;;;7.60;5.67;;;15.90;99.90;;;;;;4822136;29;20364;-59
2023/03/19 12:40:50;;;;;;;7.40;6.60;;;15.80;99.90;;;;;;4822196;29;20268;-60
2023/03/19 12:43:23;;;;;;;6.53;5.70;;;15.70;99.90;;;;;;4819011;29;20247;-60
2023/03/19 12:45:58;;;;;;;8.63;6.30;;;15.70;99.90;;;;;;4821638;29;20699;-59
2023/03/19 12:48:30;;;;;;;7.80;5.90;;;15.70;99.90;;;;;;4819988;29;20228;-59
2023/03/19 12:51:05;;;;;;;7.17;6.00;;;15.80;99.90;;;;;;4823051;29;20708;-60
2023/03/19 12:53:43;;;;;;;8.53;6.50;;;15.70;99.90;;;;;;4821832;29;20632;-58
2023/03/19 12:56:19;;;;;;;7.80;6.40;;;15.70;99.90;;;;;;4821320;29;20241;-59
2023/03/19 12:58:55;;;;;;;7.37;6.30;;;15.80;99.90;;;;;;4821435;29;20244;-59
2023/03/19 13:01:33;;;;;;;7.20;5.83;;;15.90;99.90;;;;;;4821279;29;20267;-60
2023/03/19 13:04:09;;;;;;;9.37;7.57;;;15.80;99.90;;;;;;4821267;29;20236;-59
2023/03/19 13:06:41;;;;;;;7.77;6.47;;;15.80;99.90;;;;;;4821478;29;20746;-59
2023/03/19 13:09:16;;;;;;;7.10;6.20;;;15.70;99.90;;;;;;4821938;29;20237;-59
2023/03/19 13:11:49;;;;;;;8.40;7.13;;;15.60;99.90;;;;;;4821318;29;20776;-60
2023/03/19 13:14:22;;;;;;;9.50;7.37;;;15.40;99.90;;;;;;4821058;29;20252;-59